KMBS

Mbs International Airport

Saginaw, Michigan, USA
METAR KMBS 162153Z 23010KT 3SM BR OVC003 00/M01 A2997 RMK AO2 SLP157 T00001006
Observed Flight Rules
Dec-16 @ 21:53 UTC (53 minutes ago) Instrument Flight Rules
Wind Visibility Clouds Conditions
230° at 10 knots 3 miles
  • Overcast at 300' AGL
  • Mist
Temperatures Readings
Current 0°C / 32°F
Dewpoint -1°C / 30°F
Humidity 93%
Altimeter 29.97" Hg
Pressure 1015.7 hPa
Elevation 202
METAR KMBS 162153Z 23010KT 3SM BR OVC003 00/M01 A2997 RMK AO2 SLP157 T00001006
Observed Flight Rules
Dec-16 @ 21:53 UTC
(53 minutes ago)
LIFR
Wind Visibility
230° at 10 knots 3 miles
Clouds
  • Overcast at 300' AGL
Conditions
  • Mist
Temperature Dewpoint
0°C / 32°F -1°C / 30°F
Humidity Altimeter Pressure
93% 29.97" Hg 1015.7 hPa